createdAt,value
2022-12-13T00:01:32.616Z,-1.20
2022-12-13T00:04:06.092Z,-1.20
2022-12-13T00:06:34.743Z,-1.30
2022-12-13T00:09:05.054Z,-1.30
2022-12-13T00:11:33.217Z,-1.30
2022-12-13T00:14:01.936Z,-1.30
2022-12-13T00:16:29.964Z,-1.30
2022-12-13T00:18:59.785Z,-1.30
2022-12-13T00:21:29.209Z,-1.30
2022-12-13T00:23:57.894Z,-1.30
2022-12-13T00:26:29.077Z,-1.30
2022-12-13T00:28:57.585Z,-1.30
2022-12-13T00:31:56.885Z,-1.30
2022-12-13T00:34:14.475Z,-1.30
2022-12-13T00:36:42.492Z,-1.30
2022-12-13T00:39:12.829Z,-1.30
2022-12-13T00:41:42.114Z,-1.30
2022-12-13T00:44:12.248Z,-1.30
2022-12-13T00:46:40.697Z,-1.20
2022-12-13T00:49:09.017Z,-1.10
2022-12-13T00:51:37.180Z,-1.00
2022-12-13T00:54:05.453Z,-1.00
2022-12-13T00:56:34.612Z,-1.00
2022-12-13T00:59:04.067Z,-1.00
2022-12-13T01:01:33.892Z,-1.00
2022-12-13T01:04:04.176Z,-1.00
2022-12-13T01:06:36.235Z,-1.10
2022-12-13T01:09:05.987Z,-1.10
2022-12-13T01:11:34.357Z,-1.10
2022-12-13T01:14:03.839Z,-1.20
2022-12-13T01:16:32.031Z,-1.20
2022-12-13T01:19:00.022Z,-1.30
2022-12-13T01:21:27.959Z,-1.30
2022-12-13T01:24:03.083Z,-1.40
2022-12-13T01:26:31.606Z,-1.40
2022-12-13T01:28:59.910Z,-1.50
2022-12-13T01:31:29.568Z,-1.40
2022-12-13T01:33:58.221Z,-1.40
2022-12-13T01:36:27.420Z,-1.40
2022-12-13T01:38:58.600Z,-1.40
2022-12-13T01:41:29.108Z,-1.40
2022-12-13T01:44:03.200Z,-1.30
2022-12-13T01:46:34.428Z,-1.30
2022-12-13T01:49:19.418Z,-1.20
2022-12-13T01:51:52.928Z,-1.20
2022-12-13T01:54:25.523Z,-1.10
2022-12-13T01:57:04.769Z,-1.10
2022-12-13T01:59:34.599Z,-1.10
2022-12-13T02:02:04.828Z,-1.10
2022-12-13T02:04:43.690Z,-1.10
2022-12-13T02:07:14.158Z,-1.00
2022-12-13T02:09:56.698Z,-1.00
2022-12-13T02:12:29.380Z,-1.00
2022-12-13T02:15:12.056Z,-1.00
2022-12-13T02:17:57.383Z,-1.00
2022-12-13T02:20:58.770Z,-1.00
2022-12-13T02:24:08.757Z,-0.90
2022-12-13T02:26:55.694Z,-0.90
2022-12-13T02:30:18.213Z,-0.90
2022-12-13T02:32:57.726Z,-0.90
2022-12-13T02:35:32.541Z,-1.00
2022-12-13T02:38:08.555Z,-1.00
2022-12-13T02:40:42.602Z,-0.90
2022-12-13T02:43:15.966Z,-0.90
2022-12-13T02:45:52.218Z,-0.90
2022-12-13T02:48:26.989Z,-0.90
2022-12-13T02:50:58.392Z,-0.90
2022-12-13T02:53:27.766Z,-0.90
2022-12-13T02:55:55.798Z,-0.90
2022-12-13T02:58:29.802Z,-0.90
2022-12-13T03:01:27.854Z,-0.90
2022-12-13T03:04:08.218Z,-0.90
2022-12-13T03:06:46.879Z,-0.90
2022-12-13T03:09:37.251Z,-0.90
2022-12-13T03:12:37.306Z,-0.90
2022-12-13T03:15:15.572Z,-0.90
2022-12-13T03:17:48.683Z,-0.90
2022-12-13T03:20:22.923Z,-0.90
2022-12-13T03:22:51.917Z,-0.90
2022-12-13T03:25:31.639Z,-0.90
2022-12-13T03:28:02.159Z,-0.90
2022-12-13T03:30:31.292Z,-0.90
2022-12-13T03:32:59.355Z,-0.80
2022-12-13T03:35:34.913Z,-0.90
2022-12-13T03:38:22.555Z,-0.90
2022-12-13T03:40:54.086Z,-0.80
2022-12-13T03:43:23.233Z,-0.80
2022-12-13T03:45:52.110Z,-0.70
2022-12-13T03:48:21.712Z,-0.70
2022-12-13T03:50:53.987Z,-0.70
2022-12-13T03:53:32.669Z,-0.70
2022-12-13T03:56:03.683Z,-0.70
2022-12-13T03:58:35.777Z,-0.70
2022-12-13T04:01:06.680Z,-0.70
2022-12-13T04:03:34.943Z,-0.70
2022-12-13T04:06:04.449Z,-0.70
2022-12-13T04:08:32.465Z,-0.60
2022-12-13T04:11:20.538Z,-0.70
2022-12-13T04:13:47.515Z,-0.70
2022-12-13T04:16:15.640Z,-0.70
2022-12-13T04:18:43.777Z,-0.70
2022-12-13T04:21:13.100Z,-0.70
2022-12-13T04:23:41.042Z,-0.60
2022-12-13T04:26:10.371Z,-0.70
2022-12-13T04:28:38.326Z,-0.60
2022-12-13T04:31:06.567Z,-0.60
2022-12-13T04:33:34.579Z,-0.60
2022-12-13T04:36:02.511Z,-0.60
2022-12-13T04:38:31.795Z,-0.60
2022-12-13T04:41:07.247Z,-0.60
2022-12-13T04:43:35.631Z,-0.60
2022-12-13T04:46:03.689Z,-0.60
2022-12-13T04:48:32.537Z,-0.60
2022-12-13T04:51:01.590Z,-0.60
2022-12-13T04:53:31.324Z,-0.70
2022-12-13T04:55:59.878Z,-0.70
2022-12-13T04:58:28.864Z,-0.70
2022-12-13T05:00:57.145Z,-0.70
2022-12-13T05:03:25.259Z,-0.80
2022-12-13T05:05:54.278Z,-0.80
2022-12-13T05:08:22.263Z,-0.70
2022-12-13T05:10:51.538Z,-0.80
2022-12-13T05:13:19.507Z,-0.70
2022-12-13T05:15:52.092Z,-0.80
2022-12-13T05:18:22.989Z,-0.80
2022-12-13T05:20:51.987Z,-0.80
2022-12-13T05:23:23.027Z,-0.80
2022-12-13T05:25:52.904Z,-0.80
2022-12-13T05:28:27.605Z,-0.80
2022-12-13T05:30:57.544Z,-0.80
2022-12-13T05:33:26.224Z,-0.80
2022-12-13T05:35:59.780Z,-0.80
2022-12-13T05:38:30.149Z,-0.90
2022-12-13T05:40:59.725Z,-0.90
2022-12-13T05:43:43.128Z,-0.90
2022-12-13T05:46:12.558Z,-0.90
2022-12-13T05:48:40.844Z,-0.90
2022-12-13T05:51:11.062Z,-0.90
2022-12-13T05:53:40.850Z,-0.90
2022-12-13T05:56:11.034Z,-0.90
2022-12-13T05:58:40.042Z,-0.90
2022-12-13T06:01:10.718Z,-1.00
2022-12-13T06:03:38.843Z,-1.00
2022-12-13T06:06:09.013Z,-0.90
2022-12-13T06:08:37.653Z,-1.00
2022-12-13T06:11:11.099Z,-1.00
2022-12-13T06:13:43.601Z,-1.00
2022-12-13T06:16:22.034Z,-1.00
2022-12-13T06:19:03.744Z,-1.00
2022-12-13T06:21:44.201Z,-1.00
2022-12-13T06:24:15.373Z,-1.00
2022-12-13T06:26:45.650Z,-1.00
2022-12-13T06:29:23.884Z,-1.10
2022-12-13T06:32:01.672Z,-1.00
2022-12-13T06:34:33.399Z,-1.10
2022-12-13T06:37:02.858Z,-1.10
2022-12-13T06:39:32.487Z,-1.10
2022-12-13T06:42:02.656Z,-1.20
2022-12-13T06:44:32.012Z,-1.20
2022-12-13T06:47:12.050Z,-1.20
2022-12-13T06:49:43.349Z,-1.20
2022-12-13T06:52:13.165Z,-1.20
2022-12-13T06:54:41.707Z,-1.30
2022-12-13T06:57:09.870Z,-1.30
2022-12-13T06:59:39.504Z,-1.30
2022-12-13T07:02:15.481Z,-1.30
2022-12-13T07:04:53.701Z,-1.40
2022-12-13T07:07:21.704Z,-1.30
2022-12-13T07:09:49.604Z,-1.30
2022-12-13T07:12:18.575Z,-1.30
2022-12-13T07:14:48.200Z,-1.30
2022-12-13T07:17:33.170Z,-1.40
2022-12-13T07:20:04.637Z,-1.40
2022-12-13T07:22:34.555Z,-1.40
2022-12-13T07:25:04.801Z,-1.40
2022-12-13T07:27:32.923Z,-1.40
2022-12-13T07:30:02.665Z,-1.40
2022-12-13T07:32:30.661Z,-1.40
2022-12-13T07:34:58.603Z,-1.40
2022-12-13T07:37:30.431Z,-1.40
2022-12-13T07:40:03.965Z,-1.40
2022-12-13T07:42:33.013Z,-1.40
2022-12-13T07:45:02.372Z,-1.40
2022-12-13T07:47:31.183Z,-1.40
2022-12-13T07:49:59.189Z,-1.30
2022-12-13T07:52:27.192Z,-1.40
2022-12-13T07:54:55.574Z,-1.40
2022-12-13T07:57:23.532Z,-1.40
2022-12-13T07:59:51.476Z,-1.30
2022-12-13T08:02:20.694Z,-1.40
2022-12-13T08:04:54.779Z,-1.40
2022-12-13T08:07:23.382Z,-1.40
2022-12-13T08:09:53.134Z,-1.40
2022-12-13T08:12:22.339Z,-1.40
2022-12-13T08:14:53.070Z,-1.40
2022-12-13T08:17:23.125Z,-1.40
2022-12-13T08:19:51.173Z,-1.40
2022-12-13T08:22:23.752Z,-1.30
2022-12-13T08:24:52.655Z,-1.30
2022-12-13T08:27:20.596Z,-1.30
2022-12-13T08:29:48.715Z,-1.30
2022-12-13T08:32:16.660Z,-1.30
2022-12-13T08:34:46.593Z,-1.20
2022-12-13T08:37:14.829Z,-1.20
2022-12-13T08:39:42.760Z,-1.10
2022-12-13T08:42:18.227Z,-1.10
2022-12-13T08:44:49.134Z,-1.10
2022-12-13T08:47:22.982Z,-1.10
2022-12-13T08:49:56.131Z,-1.10
2022-12-13T08:52:31.462Z,-1.10
2022-12-13T08:54:59.435Z,-1.10
2022-12-13T08:57:27.383Z,-1.00
2022-12-13T08:59:55.482Z,-1.00
2022-12-13T09:02:23.508Z,-1.00
2022-12-13T09:04:51.460Z,-1.00
2022-12-13T09:07:20.773Z,-0.90
2022-12-13T09:09:54.663Z,-0.90
2022-12-13T09:12:30.481Z,-0.90
2022-12-13T09:15:01.190Z,-0.90
2022-12-13T09:17:36.735Z,-0.90
2022-12-13T09:20:10.047Z,-0.90
2022-12-13T09:23:01.568Z,-0.70
2022-12-13T09:25:36.534Z,-0.80
2022-12-13T09:28:07.981Z,-0.80
2022-12-13T09:30:36.090Z,-0.90
2022-12-13T09:33:17.873Z,-1.10
2022-12-13T09:35:53.752Z,-1.10
2022-12-13T09:38:22.995Z,-1.10
2022-12-13T09:40:58.475Z,-1.20
2022-12-13T09:43:32.604Z,-1.10
2022-12-13T09:46:22.100Z,-1.10
2022-12-13T09:49:01.401Z,-1.10
2022-12-13T09:51:43.879Z,-1.00
2022-12-13T09:54:19.621Z,-1.00
2022-12-13T09:56:50.900Z,-1.00
2022-12-13T09:59:22.445Z,-1.00
2022-12-13T10:01:50.591Z,-1.10
2022-12-13T10:04:19.860Z,-1.20
2022-12-13T10:06:47.978Z,-1.20
2022-12-13T10:09:18.686Z,-1.30
2022-12-13T10:11:51.811Z,-1.30
2022-12-13T10:14:27.152Z,-1.30
2022-12-13T10:16:58.809Z,-1.30
2022-12-13T10:19:34.399Z,-1.40
2022-12-13T10:22:05.677Z,-1.30
2022-12-13T10:27:31.007Z,-1.30
2022-12-13T10:30:06.465Z,-1.30
2022-12-13T10:32:43.069Z,-1.20
2022-12-13T10:35:26.210Z,-1.20
2022-12-13T10:37:55.579Z,-1.20
2022-12-13T10:40:34.057Z,-1.20
2022-12-13T10:43:27.410Z,-1.20
2022-12-13T10:46:00.787Z,-1.30
2022-12-13T10:48:38.444Z,-1.20
2022-12-13T10:51:09.666Z,-1.30
2022-12-13T10:53:47.120Z,-1.30
2022-12-13T10:56:23.685Z,-1.20
2022-12-13T10:59:16.889Z,-1.20
2022-12-13T11:01:45.979Z,-1.20
2022-12-13T11:04:27.731Z,-1.20
2022-12-13T11:06:57.007Z,-1.30
2022-12-13T11:09:39.114Z,-1.40
2022-12-13T11:12:14.594Z,-1.40
2022-12-13T11:14:53.898Z,-1.60
2022-12-13T11:17:23.929Z,-1.70
2022-12-13T11:19:54.659Z,-1.70
2022-12-13T11:22:25.324Z,-1.80
2022-12-13T11:24:59.842Z,-1.90
2022-12-13T11:27:46.499Z,-1.80
2022-12-13T11:30:22.054Z,-1.90
2022-12-13T11:33:15.264Z,-1.80
2022-12-13T11:35:57.775Z,-1.60
2022-12-13T11:38:32.251Z,-1.30
2022-12-13T11:41:07.453Z,-1.10
2022-12-13T11:43:39.217Z,-0.80
2022-12-13T11:46:17.153Z,-0.90
2022-12-13T11:48:52.512Z,-0.70
2022-12-13T11:51:25.616Z,-0.60
2022-12-13T11:53:59.347Z,-0.70
2022-12-13T11:56:29.516Z,-0.80
2022-12-13T11:59:16.307Z,-0.90
2022-12-13T12:01:56.584Z,-0.80
2022-12-13T12:04:38.890Z,-0.80
2022-12-13T12:07:31.668Z,-0.80
2022-12-13T12:10:12.191Z,-0.90
2022-12-13T12:12:45.059Z,-1.00
2022-12-13T12:15:26.503Z,-1.20
2022-12-13T12:17:57.096Z,-1.30
2022-12-13T12:20:38.208Z,-1.20
2022-12-13T12:23:19.190Z,-1.30
2022-12-13T12:25:53.946Z,-1.20
2022-12-13T12:28:35.433Z,-1.20
2022-12-13T12:31:19.900Z,-1.20
2022-12-13T12:33:56.183Z,-1.30
2022-12-13T12:36:42.604Z,-1.30
2022-12-13T12:39:28.101Z,-1.30
2022-12-13T12:42:14.262Z,-1.40
2022-12-13T12:44:54.249Z,-1.50
2022-12-13T12:48:42.652Z,-1.50
2022-12-13T12:50:42.769Z,-1.60
2022-12-13T12:53:26.022Z,-1.70
2022-12-13T12:56:06.456Z,-1.70
2022-12-13T12:58:45.534Z,-1.60
2022-12-13T13:01:23.108Z,-1.50
2022-12-13T13:03:54.449Z,-1.40
2022-12-13T13:06:36.074Z,-1.30
2022-12-13T13:09:09.174Z,-1.20
2022-12-13T13:11:43.226Z,-1.10
2022-12-13T13:14:28.181Z,-1.10
2022-12-13T13:16:56.814Z,-1.20
2022-12-13T13:19:46.139Z,-1.30
2022-12-13T13:22:44.195Z,-1.30
2022-12-13T13:25:29.252Z,-1.30
2022-12-13T13:28:16.414Z,-1.40
2022-12-13T13:31:06.332Z,-1.40
2022-12-13T13:33:46.567Z,-1.50
2022-12-13T13:36:47.976Z,-1.50
2022-12-13T13:39:36.937Z,-1.50
2022-12-13T13:42:18.340Z,-1.50
2022-12-13T13:45:03.100Z,-1.50
2022-12-13T13:47:39.978Z,-1.50
2022-12-13T13:50:40.592Z,-1.60
2022-12-13T13:53:35.506Z,-1.60
2022-12-13T13:56:18.291Z,-1.60
2022-12-13T13:59:24.783Z,-1.60
2022-12-13T14:02:31.816Z,-1.70
2022-12-13T14:05:48.095Z,-1.70
2022-12-13T14:08:35.646Z,-1.70
2022-12-13T14:11:22.265Z,-1.70
2022-12-13T14:14:23.417Z,-1.70
2022-12-13T14:17:27.316Z,-1.70
2022-12-13T14:20:18.680Z,-1.80
2022-12-13T14:22:51.704Z,-1.80
2022-12-13T14:25:46.391Z,-1.80
2022-12-13T14:28:29.493Z,-1.80
2022-12-13T14:30:58.001Z,-1.90
2022-12-13T14:33:28.163Z,-1.90
2022-12-13T14:35:58.636Z,-1.80
2022-12-13T14:38:28.549Z,-2.00
2022-12-13T14:41:00.032Z,-2.00
2022-12-13T14:43:30.827Z,-2.00
2022-12-13T14:46:00.454Z,-2.00
2022-12-13T14:48:33.746Z,-2.00
2022-12-13T14:51:01.913Z,-2.10
2022-12-13T14:53:34.592Z,-2.10
2022-12-13T14:56:11.270Z,-2.10
2022-12-13T14:59:00.190Z,-2.20
2022-12-13T15:01:32.382Z,-2.20
2022-12-13T15:04:20.436Z,-2.30
2022-12-13T15:06:51.283Z,-2.30
2022-12-13T15:09:19.749Z,-2.30
2022-12-13T15:11:48.027Z,-2.30
2022-12-13T15:14:20.731Z,-2.30
2022-12-13T15:16:50.732Z,-2.30
2022-12-13T15:19:30.287Z,-2.40
2022-12-13T15:22:12.665Z,-2.40
2022-12-13T15:24:47.121Z,-2.40
2022-12-13T15:27:19.489Z,-2.40
2022-12-13T15:29:49.886Z,-2.50
2022-12-13T15:32:22.631Z,-2.50
2022-12-13T15:34:52.123Z,-2.50
2022-12-13T15:37:28.307Z,-2.50
2022-12-13T15:40:01.707Z,-2.50
2022-12-13T15:42:33.380Z,-2.50
2022-12-13T15:45:06.243Z,-2.60
2022-12-13T15:47:34.576Z,-2.60
2022-12-13T15:50:04.659Z,-2.60
2022-12-13T15:52:36.344Z,-2.60
2022-12-13T15:55:28.467Z,-2.60
2022-12-13T15:57:58.710Z,-2.60
2022-12-13T16:00:31.070Z,-2.70
2022-12-13T16:03:09.085Z,-2.60
2022-12-13T16:05:41.243Z,-2.70
2022-12-13T16:08:24.564Z,-2.60
2022-12-13T16:10:53.927Z,-2.60
2022-12-13T16:13:26.435Z,-2.60
2022-12-13T16:16:00.272Z,-2.70
2022-12-13T16:18:45.717Z,-2.70
2022-12-13T16:21:14.363Z,-2.70
2022-12-13T16:23:48.535Z,-2.70
2022-12-13T16:26:23.607Z,-2.70
2022-12-13T16:28:51.797Z,-2.70
2022-12-13T16:31:23.210Z,-2.70
2022-12-13T16:33:51.316Z,-2.70
2022-12-13T16:36:19.373Z,-2.80
2022-12-13T16:38:47.417Z,-2.80
2022-12-13T16:41:16.224Z,-2.80
2022-12-13T16:43:52.284Z,-2.80
2022-12-13T16:47:14.340Z,-2.80
2022-12-13T16:49:19.987Z,-2.90
2022-12-13T16:51:48.926Z,-2.90
2022-12-13T16:54:17.738Z,-2.90
2022-12-13T16:56:46.022Z,-2.90
2022-12-13T16:59:15.632Z,-3.00
2022-12-13T17:01:47.965Z,-3.00
2022-12-13T17:04:21.037Z,-3.10
2022-12-13T17:06:50.092Z,-3.10
2022-12-13T17:09:18.760Z,-3.10
2022-12-13T17:11:47.119Z,-3.10
2022-12-13T17:14:15.629Z,-3.10
2022-12-13T17:16:43.612Z,-3.10
2022-12-13T17:19:15.397Z,-3.10
2022-12-13T17:21:43.602Z,-3.10
2022-12-13T17:24:12.572Z,-3.10
2022-12-13T17:26:41.145Z,-3.20
2022-12-13T17:29:22.166Z,-3.10
2022-12-13T17:31:50.186Z,-3.20
2022-12-13T17:34:19.743Z,-3.20
2022-12-13T17:36:47.798Z,-3.20
2022-12-13T17:39:15.794Z,-3.20
2022-12-13T17:41:43.918Z,-3.20
2022-12-13T17:44:23.236Z,-3.20
2022-12-13T17:46:54.570Z,-3.20
2022-12-13T17:49:24.995Z,-3.20
2022-12-13T17:51:54.114Z,-3.20
2022-12-13T17:54:23.513Z,-3.20
2022-12-13T17:56:52.327Z,-3.10
2022-12-13T17:59:21.163Z,-3.10
2022-12-13T18:01:49.450Z,-3.10
2022-12-13T18:04:18.056Z,-3.10
2022-12-13T18:06:47.793Z,-3.10
2022-12-13T18:09:16.068Z,-3.00
2022-12-13T18:11:44.353Z,-3.10
2022-12-13T18:14:12.618Z,-3.10
2022-12-13T18:16:41.434Z,-3.10
2022-12-13T18:19:12.453Z,-3.00
2022-12-13T18:21:41.025Z,-3.10
2022-12-13T18:24:12.023Z,-3.10
2022-12-13T18:26:40.566Z,-3.10
2022-12-13T18:29:08.875Z,-3.10
2022-12-13T18:31:39.893Z,-3.10
2022-12-13T18:34:09.029Z,-3.10
2022-12-13T18:36:39.581Z,-3.10
2022-12-13T18:39:07.973Z,-3.00
2022-12-13T18:41:37.782Z,-3.10
2022-12-13T18:44:08.258Z,-3.00
2022-12-13T18:46:38.105Z,-3.10
2022-12-13T18:49:07.773Z,-3.20
2022-12-13T18:51:36.287Z,-3.20
2022-12-13T18:54:04.838Z,-3.10
2022-12-13T18:56:33.113Z,-3.20
2022-12-13T18:59:02.864Z,-3.20
2022-12-13T19:01:31.351Z,-3.20
2022-12-13T19:03:59.802Z,-3.20
2022-12-13T19:06:29.548Z,-3.20
2022-12-13T19:08:59.305Z,-3.20
2022-12-13T19:11:28.895Z,-3.20
2022-12-13T19:13:57.884Z,-3.20
2022-12-13T19:16:28.138Z,-3.10
2022-12-13T19:18:56.521Z,-3.10
2022-12-13T19:21:24.854Z,-3.20
2022-12-13T19:23:57.836Z,-3.20
2022-12-13T19:26:28.230Z,-3.20
2022-12-13T19:28:58.172Z,-3.20
2022-12-13T19:31:32.379Z,-3.20
2022-12-13T19:34:01.660Z,-3.20
2022-12-13T19:36:30.328Z,-3.20
2022-12-13T19:38:58.876Z,-3.20
2022-12-13T19:41:27.387Z,-3.30
2022-12-13T19:43:55.768Z,-3.30
2022-12-13T19:46:24.214Z,-3.30
2022-12-13T19:48:54.129Z,-3.30
2022-12-13T19:51:22.859Z,-3.30
2022-12-13T19:53:51.286Z,-3.30
2022-12-13T19:56:21.948Z,-3.30
2022-12-13T19:58:51.334Z,-3.30
2022-12-13T20:01:20.039Z,-3.30
2022-12-13T20:03:48.592Z,-3.30
2022-12-13T20:06:19.634Z,-3.40
2022-12-13T20:08:47.869Z,-3.40
2022-12-13T20:11:20.299Z,-3.40
2022-12-13T20:13:48.978Z,-3.40
2022-12-13T20:16:18.467Z,-3.40
2022-12-13T20:18:47.260Z,-3.40
2022-12-13T20:21:17.096Z,-3.40
2022-12-13T20:23:49.005Z,-3.40
2022-12-13T20:26:20.119Z,-3.40
2022-12-13T20:28:49.020Z,-3.40
2022-12-13T20:31:19.945Z,-3.40
2022-12-13T20:33:48.687Z,-3.40
2022-12-13T20:36:25.287Z,-3.40
2022-12-13T20:38:55.966Z,-3.40
2022-12-13T20:41:25.382Z,-3.50
2022-12-13T20:43:54.112Z,-3.60
2022-12-13T20:46:23.466Z,-3.70
2022-12-13T20:48:52.491Z,-3.80
2022-12-13T20:51:24.477Z,-3.90
2022-12-13T20:53:53.463Z,-4.00
2022-12-13T20:56:23.718Z,-4.10
2022-12-13T20:58:52.004Z,-4.20
2022-12-13T21:01:21.488Z,-4.20
2022-12-13T21:03:49.466Z,-4.40
2022-12-13T21:06:17.555Z,-4.40
2022-12-13T21:08:52.701Z,-4.50
2022-12-13T21:11:28.907Z,-4.60
2022-12-13T21:14:05.320Z,-4.60
2022-12-13T21:16:38.470Z,-4.70
2022-12-13T21:19:09.674Z,-4.80
2022-12-13T21:21:38.314Z,-4.90
2022-12-13T21:24:08.438Z,-4.90
2022-12-13T21:26:36.744Z,-5.00
2022-12-13T21:29:07.675Z,-5.00
2022-12-13T21:31:36.877Z,-5.10
2022-12-13T21:34:06.792Z,-5.10
2022-12-13T21:36:36.781Z,-5.20
2022-12-13T21:39:08.623Z,-5.20
2022-12-13T21:41:36.663Z,-5.20
2022-12-13T21:44:05.185Z,-5.30
2022-12-13T21:47:10.092Z,-5.30
2022-12-13T21:49:21.427Z,-5.40
2022-12-13T21:51:49.426Z,-5.40
2022-12-13T21:54:19.212Z,-5.40
2022-12-13T21:57:04.595Z,-5.40
2022-12-13T21:59:32.725Z,-5.50
2022-12-13T22:02:14.725Z,-5.50
2022-12-13T22:04:44.983Z,-5.50
2022-12-13T22:07:14.690Z,-5.50
2022-12-13T22:09:44.219Z,-5.60
2022-12-13T22:12:20.195Z,-5.60
2022-12-13T22:14:48.504Z,-5.70
2022-12-13T22:17:16.771Z,-5.70
2022-12-13T22:19:48.780Z,-5.80
2022-12-13T22:22:17.687Z,-5.80
2022-12-13T22:24:53.201Z,-5.80
2022-12-13T22:27:25.319Z,-5.90
2022-12-13T22:29:55.190Z,-5.80
2022-12-13T22:32:23.597Z,-5.90
2022-12-13T22:34:53.209Z,-5.90
2022-12-13T22:37:21.413Z,-5.90
2022-12-13T22:39:51.256Z,-6.00
2022-12-13T22:42:20.286Z,-6.00
2022-12-13T22:44:48.707Z,-6.00
2022-12-13T22:47:16.854Z,-6.00
2022-12-13T22:49:44.895Z,-6.10
2022-12-13T22:52:16.930Z,-6.10
2022-12-13T22:54:44.901Z,-6.10
2022-12-13T22:57:14.275Z,-6.20
2022-12-13T22:59:42.275Z,-6.20
2022-12-13T23:02:10.525Z,-6.30
2022-12-13T23:04:38.688Z,-6.30
2022-12-13T23:07:06.780Z,-6.30
2022-12-13T23:09:34.849Z,-6.40
2022-12-13T23:12:20.374Z,-6.40
2022-12-13T23:14:49.660Z,-6.40
2022-12-13T23:17:18.073Z,-6.40
2022-12-13T23:19:51.577Z,-6.40
2022-12-13T23:22:21.913Z,-6.40
2022-12-13T23:24:50.394Z,-6.50
2022-12-13T23:27:18.484Z,-6.50
2022-12-13T23:29:46.666Z,-6.50
2022-12-13T23:32:16.663Z,-6.60
2022-12-13T23:34:44.618Z,-6.60
2022-12-13T23:37:12.642Z,-6.60
2022-12-13T23:39:41.518Z,-6.70
2022-12-13T23:42:09.572Z,-6.70
2022-12-13T23:44:37.870Z,-6.70
2022-12-13T23:47:05.924Z,-6.70
2022-12-13T23:49:35.278Z,-6.70
2022-12-13T23:52:03.308Z,-6.70
2022-12-13T23:54:31.313Z,-6.70
2022-12-13T23:56:59.242Z,-6.70
2022-12-13T23:59:28.791Z,-6.70
